Time;durP1;ratioP1;P1;durP2;ratioP2;P2;SDS_P1;SDS_P2;PMS_P1;PMS_P2;Temp;Humidity;BMP_temperature;BMP_pressure;BME280_temperature;BME280_humidity;BME280_pressure;Samples;Min_cycle;Max_cycle;Signal;HPM_P1;HPM_P2
2021/06/10 00:01:12;;;;;;;7.90;7.10;;;20.20;99.90;;;;;;5062863;28;20445;-86
2021/06/10 00:03:38;;;;;;;6.60;6.00;;;20.20;99.90;;;;;;5064613;28;20453;-86
2021/06/10 00:06:05;;;;;;;7.93;7.13;;;20.10;99.90;;;;;;5068366;28;20523;-86
2021/06/10 00:08:32;;;;;;;9.80;7.17;;;20.10;99.90;;;;;;5077306;28;20929;-86
2021/06/10 00:10:59;;;;;;;7.60;7.00;;;20.10;99.90;;;;;;5067105;28;20450;-85
2021/06/10 00:13:25;;;;;;;7.70;6.90;;;20.10;99.90;;;;;;5062487;28;20976;-86
2021/06/10 00:15:55;;;;;;;7.27;6.57;;;20.00;99.90;;;;;;5064503;28;20465;-86
2021/06/10 00:18:21;;;;;;;8.13;7.43;;;19.90;99.90;;;;;;5063178;28;20615;-85
2021/06/10 00:20:47;;;;;;;6.23;5.73;;;19.70;99.90;;;;;;5061942;28;20454;-84
2021/06/10 00:23:14;;;;;;;7.80;6.43;;;19.40;99.90;;;;;;5067350;28;20438;-85
2021/06/10 00:25:41;;;;;;;6.57;5.97;;;19.30;99.90;;;;;;5062680;28;20489;-86
2021/06/10 00:28:07;;;;;;;8.40;7.63;;;19.30;99.90;;;;;;5066311;28;20429;-86
2021/06/10 00:30:33;;;;;;;7.37;6.67;;;19.40;99.90;;;;;;5064587;28;20449;-87
2021/06/10 00:33:01;;;;;;;9.07;6.40;;;19.40;99.90;;;;;;5064573;28;20445;-87
2021/06/10 00:35:30;;;;;;;8.80;6.50;;;19.30;99.90;;;;;;5063241;28;20525;-86
2021/06/10 00:37:58;;;;;;;8.43;7.63;;;19.30;99.90;;;;;;5064919;28;20442;-86
2021/06/10 00:40:24;;;;;;;7.43;6.73;;;19.30;99.90;;;;;;5078121;28;20465;-86
2021/06/10 00:42:50;;;;;;;8.37;7.47;;;19.30;99.90;;;;;;5074661;28;20446;-87
2021/06/10 00:45:20;;;;;;;7.10;6.43;;;19.20;99.90;;;;;;5065200;28;20479;-83
2021/06/10 00:47:47;;;;;;;9.20;6.97;;;19.20;99.90;;;;;;5066314;28;20451;-87
2021/06/10 00:50:18;;;;;;;9.63;7.90;;;19.30;99.90;;;;;;5061412;28;20442;-85
2021/06/10 00:52:46;;;;;;;8.20;7.50;;;19.30;99.90;;;;;;5063329;28;20438;-85
2021/06/10 00:55:13;;;;;;;9.50;6.50;;;19.30;99.90;;;;;;5073304;28;20476;-85
2021/06/10 00:57:41;;;;;;;11.27;6.93;;;19.30;99.90;;;;;;5073688;28;20433;-85
2021/06/10 01:00:09;;;;;;;8.63;7.10;;;19.20;99.90;;;;;;5073520;28;20588;-85
2021/06/10 01:02:36;;;;;;;9.00;7.80;;;19.20;99.90;;;;;;5074559;28;20442;-85
2021/06/10 01:05:02;;;;;;;8.10;7.33;;;;;;;;;;5074948;28;20446;-83
2021/06/10 01:07:41;;;;;;;9.73;7.17;;;19.10;99.90;;;;;;5073826;28;20476;-85
2021/06/10 01:10:12;;;;;;;7.43;6.73;;;19.20;99.90;;;;;;5072844;28;20895;-86
2021/06/10 01:12:47;;;;;;;8.00;7.20;;;19.10;99.90;;;;;;5071920;28;20442;-86
2021/06/10 01:15:14;;;;;;;10.60;7.87;;;19.00;99.90;;;;;;5068624;28;20448;-85
2021/06/10 01:17:46;;;;;;;8.23;7.53;;;19.10;99.90;;;;;;5062425;28;20449;-85
2021/06/10 01:20:14;;;;;;;10.90;8.80;;;19.00;99.90;;;;;;5063957;28;20529;-86
2021/06/10 01:22:44;;;;;;;9.60;6.90;;;19.00;99.90;;;;;;5066535;28;20813;-85
2021/06/10 01:25:22;;;;;;;7.93;7.13;;;18.90;99.90;;;;;;5066285;28;20441;-85
2021/06/10 01:27:52;;;;;;;12.47;7.50;;;18.80;99.90;;;;;;5063702;28;20425;-86
2021/06/10 01:30:28;;;;;;;8.90;8.00;;;18.80;99.90;;;;;;5068322;28;20426;-86
2021/06/10 01:33:00;;;;;;;8.50;7.70;;;18.70;99.90;;;;;;5075470;28;20433;-86
2021/06/10 01:35:32;;;;;;;8.67;7.87;;;18.80;99.90;;;;;;5066423;28;20469;-86
2021/06/10 01:38:00;;;;;;;10.87;7.60;;;18.80;99.90;;;;;;5063365;28;20812;-86
2021/06/10 01:40:27;;;;;;;8.40;7.03;;;18.80;99.90;;;;;;5061123;28;20478;-86
2021/06/10 01:42:56;;;;;;;15.63;8.17;;;18.80;99.90;;;;;;5059698;28;20452;-86
2021/06/10 01:45:23;;;;;;;8.53;6.93;;;18.80;99.90;;;;;;5058059;28;20501;-86
2021/06/10 01:47:50;;;;;;;9.10;7.03;;;18.70;99.90;;;;;;5058266;28;20441;-85
2021/06/10 01:50:17;;;;;;;7.43;6.70;;;18.70;99.90;;;;;;5058434;28;20442;-86
2021/06/10 01:52:46;;;;;;;7.30;6.80;;;18.70;99.90;;;;;;5060304;28;20445;-86
2021/06/10 01:55:15;;;;;;;8.00;7.20;;;18.70;99.90;;;;;;5062108;28;21025;-86
2021/06/10 01:57:43;;;;;;;11.90;7.73;;;18.70;99.90;;;;;;5060738;28;20471;-86
2021/06/10 02:00:13;;;;;;;8.67;7.97;;;18.80;99.90;;;;;;5060067;28;20479;-86
2021/06/10 02:02:40;;;;;;;7.90;7.20;;;18.80;99.90;;;;;;5060203;28;20545;-87
2021/06/10 02:05:10;;;;;;;7.77;7.07;;;18.90;99.90;;;;;;5059367;28;20456;-85
2021/06/10 02:07:36;;;;;;;9.10;7.47;;;19.00;99.90;;;;;;5063001;28;20438;-87
2021/06/10 02:10:05;;;;;;;10.03;7.60;;;19.00;99.90;;;;;;5076879;28;20437;-84
2021/06/10 02:12:31;;;;;;;8.30;7.10;;;19.00;99.90;;;;;;5076903;28;20429;-82
2021/06/10 02:14:59;;;;;;;7.07;6.43;;;19.00;99.90;;;;;;5076796;28;20480;-83
2021/06/10 02:17:26;;;;;;;7.70;7.10;;;18.90;99.90;;;;;;5077154;28;20528;-84
2021/06/10 02:19:52;;;;;;;11.70;8.17;;;19.00;99.90;;;;;;5077529;28;20480;-84
2021/06/10 02:22:18;;;;;;;8.40;7.13;;;19.00;99.90;;;;;;5077670;28;20421;-86
2021/06/10 02:24:47;;;;;;;8.70;8.00;;;19.00;99.90;;;;;;5077224;28;20446;-84
2021/06/10 02:27:13;;;;;;;7.70;7.00;;;19.00;99.90;;;;;;5076909;28;20543;-85
2021/06/10 02:29:40;;;;;;;8.93;6.93;;;19.00;99.90;;;;;;5072248;28;20446;-86
2021/06/10 02:32:07;;;;;;;8.13;7.33;;;19.10;99.90;;;;;;5063431;28;20452;-86
2021/06/10 02:34:34;;;;;;;7.90;7.13;;;19.10;99.90;;;;;;5062210;28;20446;-86
2021/06/10 02:37:01;;;;;;;6.97;6.37;;;19.00;99.90;;;;;;5062328;28;20477;-84
2021/06/10 02:39:29;;;;;;;6.97;6.37;;;18.90;99.90;;;;;;5061910;28;20500;-85
2021/06/10 02:41:56;;;;;;;6.50;5.90;;;18.90;99.90;;;;;;5060652;28;20463;-86
2021/06/10 02:44:25;;;;;;;5.97;5.60;;;18.90;99.90;;;;;;5060543;28;20445;-86
2021/06/10 02:46:52;;;;;;;6.60;6.10;;;18.90;99.90;;;;;;5064959;28;20486;-86
2021/06/10 02:49:20;;;;;;;7.00;6.17;;;19.00;99.90;;;;;;5063377;28;20801;-86
2021/06/10 02:51:48;;;;;;;6.50;5.90;;;19.00;99.90;;;;;;5058394;28;20437;-86
2021/06/10 02:54:19;;;;;;;6.93;6.20;;;19.10;99.90;;;;;;5067264;28;20454;-85
2021/06/10 02:56:46;;;;;;;6.80;6.20;;;19.10;99.90;;;;;;5057293;28;20502;-85
2021/06/10 02:59:14;;;;;;;7.27;6.53;;;19.20;99.90;;;;;;5058092;28;20535;-86
2021/06/10 03:01:46;;;;;;;7.30;6.60;;;19.20;99.90;;;;;;5064317;28;20498;-85
2021/06/10 03:04:14;;;;;;;7.10;6.40;;;19.10;99.90;;;;;;5068165;28;20460;-86
2021/06/10 03:06:41;;;;;;;8.07;6.80;;;19.10;99.90;;;;;;5064909;28;20469;-86
2021/06/10 03:09:10;;;;;;;8.03;6.10;;;19.20;99.90;;;;;;5063906;28;20456;-86
2021/06/10 03:11:39;;;;;;;7.90;6.33;;;19.20;99.90;;;;;;5063036;28;20453;-86
2021/06/10 03:14:07;;;;;;;6.10;5.50;;;19.20;99.90;;;;;;5062541;28;20453;-86
2021/06/10 03:16:35;;;;;;;6.53;5.40;;;19.20;99.90;;;;;;5061347;28;21010;-86
2021/06/10 03:19:01;;;;;;;7.57;6.60;;;19.20;99.90;;;;;;5060419;28;21007;-86
2021/06/10 03:21:28;;;;;;;7.17;6.53;;;19.10;99.90;;;;;;5060306;28;20454;-86
2021/06/10 03:23:55;;;;;;;6.67;5.90;;;18.90;99.90;;;;;;5060951;28;20746;-86
2021/06/10 03:26:23;;;;;;;5.43;5.03;;;19.00;99.90;;;;;;5060213;28;20543;-86
2021/06/10 03:28:50;;;;;;;7.55;5.88;;;19.00;99.90;;;;;;5062236;28;20797;-86
2021/06/10 03:31:17;;;;;;;6.63;6.00;;;19.00;99.90;;;;;;5062616;28;20206;-86
2021/06/10 03:33:44;;;;;;;7.13;5.70;;;18.90;99.90;;;;;;5079889;28;20430;-84
2021/06/10 03:36:11;;;;;;;7.80;6.37;;;18.90;99.90;;;;;;5069980;28;20524;-86
2021/06/10 03:38:39;;;;;;;6.73;6.13;;;18.90;99.90;;;;;;5059375;28;20445;-86
2021/06/10 03:41:07;;;;;;;7.10;6.03;;;19.00;99.90;;;;;;5059421;28;20461;-85
2021/06/10 03:43:37;;;;;;;7.00;6.40;;;19.00;99.90;;;;;;5059819;28;20567;-85
2021/06/10 03:46:05;;;;;;;7.13;6.53;;;19.00;99.90;;;;;;5060564;28;20856;-86
2021/06/10 03:48:31;;;;;;;9.10;7.20;;;19.00;99.90;;;;;;5060621;28;20803;-86
2021/06/10 03:50:58;;;;;;;7.33;6.60;;;19.10;99.90;;;;;;5061604;28;20447;-86
2021/06/10 03:53:24;;;;;;;11.83;7.37;;;19.10;99.90;;;;;;5060808;28;20506;-86
2021/06/10 03:55:50;;;;;;;8.07;6.63;;;19.20;99.90;;;;;;5061529;28;20907;-86
2021/06/10 03:58:16;;;;;;;8.63;6.80;;;19.30;99.90;;;;;;5061236;28;20814;-86
2021/06/10 04:00:44;;;;;;;9.53;7.23;;;19.40;99.90;;;;;;5071741;28;20225;-86
2021/06/10 04:03:10;;;;;;;7.93;7.30;;;19.40;99.90;;;;;;5066910;28;20453;-86
2021/06/10 04:05:36;;;;;;;9.80;7.47;;;19.40;99.90;;;;;;5066258;28;20468;-86
2021/06/10 04:08:02;;;;;;;10.97;8.20;;;19.50;99.90;;;;;;5061905;28;20450;-86
2021/06/10 04:10:28;;;;;;;13.15;9.90;;;19.40;99.90;;;;;;5059247;28;20435;-85
2021/06/10 04:12:54;;;;;;;11.13;9.80;;;19.50;99.90;;;;;;5061989;28;20491;-86
2021/06/10 04:15:20;;;;;;;8.73;7.93;;;19.60;99.90;;;;;;5060304;28;20461;-86
2021/06/10 04:17:48;;;;;;;7.40;6.77;;;19.50;99.90;;;;;;5060666;28;21081;-86
2021/06/10 04:20:15;;;;;;;12.67;8.10;;;19.30;99.90;;;;;;5061433;28;21017;-86
2021/06/10 04:22:41;;;;;;;11.73;8.13;;;19.30;99.90;;;;;;5064812;28;20449;-86
2021/06/10 04:25:09;;;;;;;11.10;8.30;;;19.30;99.90;;;;;;5069384;28;20445;-85
2021/06/10 04:27:36;;;;;;;8.00;7.40;;;19.30;99.90;;;;;;5067227;28;20464;-86
2021/06/10 04:30:04;;;;;;;7.93;7.03;;;19.20;99.90;;;;;;5066245;28;20442;-85
2021/06/10 04:32:30;;;;;;;7.47;6.77;;;19.10;99.90;;;;;;5067320;28;20449;-86
2021/06/10 04:34:58;;;;;;;12.00;8.70;;;19.10;99.90;;;;;;5064203;28;20512;-86
2021/06/10 04:37:24;;;;;;;8.90;8.03;;;19.20;99.90;;;;;;5061043;28;20481;-86
2021/06/10 04:39:50;;;;;;;8.37;7.60;;;19.10;99.90;;;;;;5070616;28;20488;-85
2021/06/10 04:42:16;;;;;;;10.87;7.70;;;19.10;99.90;;;;;;5068439;28;20507;-85
2021/06/10 04:44:42;;;;;;;8.63;6.67;;;19.20;99.90;;;;;;5062265;28;20802;-84
2021/06/10 04:47:09;;;;;;;8.90;8.00;;;19.20;99.90;;;;;;5057768;28;20465;-85
2021/06/10 04:49:36;;;;;;;7.47;6.87;;;19.20;99.90;;;;;;5058068;28;20468;-85
2021/06/10 04:52:05;;;;;;;8.37;7.07;;;19.30;99.90;;;;;;5057155;28;20513;-86
2021/06/10 04:54:31;;;;;;;8.63;6.60;;;19.30;99.90;;;;;;5058093;28;20441;-86
2021/06/10 04:56:57;;;;;;;8.87;7.97;;;19.30;99.90;;;;;;5058097;28;20476;-86
2021/06/10 04:59:23;;;;;;;8.80;7.37;;;19.40;99.90;;;;;;5058981;28;20478;-87
2021/06/10 05:01:49;;;;;;;7.60;6.77;;;19.50;99.90;;;;;;5059046;28;20527;-85
2021/06/10 05:04:15;;;;;;;9.00;6.70;;;19.60;99.90;;;;;;5058827;28;20461;-86
2021/06/10 05:06:41;;;;;;;7.43;6.83;;;19.80;99.90;;;;;;5059429;28;20519;-86
2021/06/10 05:09:09;;;;;;;7.73;7.13;;;19.70;99.90;;;;;;5059908;28;20437;-86
2021/06/10 05:11:35;;;;;;;7.77;7.17;;;19.60;99.90;;;;;;5077834;28;20445;-85
2021/06/10 05:14:01;;;;;;;8.30;7.50;;;19.60;99.90;;;;;;5070717;28;20446;-86
2021/06/10 05:16:28;;;;;;;10.23;6.20;;;19.80;99.90;;;;;;5064102;28;20473;-86
2021/06/10 05:18:54;;;;;;;8.60;6.97;;;19.90;99.90;;;;;;5062891;28;20445;-86
2021/06/10 05:21:21;;;;;;;7.87;7.17;;;20.10;99.90;;;;;;5061795;28;20452;-86
2021/06/10 05:23:47;;;;;;;8.20;7.50;;;20.20;99.90;;;;;;5061575;28;20457;-86
2021/06/10 05:26:14;;;;;;;9.73;7.80;;;20.20;99.90;;;;;;5061226;28;20478;-86
2021/06/10 05:28:41;;;;;;;10.63;7.20;;;20.10;99.90;;;;;;5063646;28;20442;-86
2021/06/10 05:31:08;;;;;;;7.93;7.13;;;20.20;99.90;;;;;;5064896;28;20813;-86
2021/06/10 05:33:34;;;;;;;17.67;6.93;;;20.30;99.90;;;;;;5067621;28;20454;-85
2021/06/10 05:36:00;;;;;;;6.63;6.10;;;20.20;99.90;;;;;;5062211;28;20480;-85
2021/06/10 05:38:27;;;;;;;9.37;7.80;;;20.40;99.90;;;;;;5061626;28;20445;-85
2021/06/10 05:40:53;;;;;;;11.40;7.40;;;20.40;99.90;;;;;;5073323;28;20504;-85
2021/06/10 05:43:22;;;;;;;15.33;7.40;;;20.40;99.90;;;;;;5070648;28;20453;-86
2021/06/10 05:45:48;;;;;;;9.10;7.57;;;20.40;99.90;;;;;;5063718;28;20466;-85
2021/06/10 05:48:15;;;;;;;7.33;6.60;;;20.30;99.90;;;;;;5063369;28;20430;-85
2021/06/10 05:50:41;;;;;;;7.93;7.13;;;20.40;99.90;;;;;;5068682;28;20476;-84
2021/06/10 05:53:08;;;;;;;9.00;6.67;;;20.50;99.90;;;;;;5074271;28;20430;-85
2021/06/10 05:55:35;;;;;;;8.40;7.20;;;20.60;99.90;;;;;;5077689;28;20465;-84
2021/06/10 05:58:01;;;;;;;7.63;6.43;;;20.60;99.90;;;;;;5076195;28;20924;-85
2021/06/10 06:00:28;;;;;;;7.20;6.60;;;20.50;99.90;;;;;;5069374;28;20507;-85
2021/06/10 06:02:54;;;;;;;7.40;6.60;;;20.60;99.90;;;;;;5068454;28;20461;-84
2021/06/10 06:05:20;;;;;;;8.90;5.57;;;20.50;99.90;;;;;;5070687;28;20508;-85
2021/06/10 06:07:46;;;;;;;13.27;10.73;;;20.60;99.90;;;;;;5070510;28;20472;-85
2021/06/10 06:10:14;;;;;;;7.70;6.93;;;20.80;99.90;;;;;;5069850;28;20449;-85
2021/06/10 06:12:41;;;;;;;10.57;7.37;;;20.80;99.90;;;;;;5068327;28;20449;-85
2021/06/10 06:15:09;;;;;;;7.10;6.50;;;20.80;99.90;;;;;;5067242;28;20450;-84
2021/06/10 06:17:36;;;;;;;11.13;6.10;;;20.80;99.90;;;;;;5069323;28;20449;-85
2021/06/10 06:20:04;;;;;;;6.40;5.80;;;20.90;99.90;;;;;;5067591;28;20515;-85
2021/06/10 06:22:30;;;;;;;6.40;5.97;;;20.80;99.90;;;;;;5068653;28;20446;-85
2021/06/10 06:24:56;;;;;;;9.03;6.83;;;20.70;99.90;;;;;;5061269;28;20594;-85
2021/06/10 06:27:23;;;;;;;7.80;6.80;;;20.70;99.90;;;;;;5058969;28;20477;-85
2021/06/10 06:29:49;;;;;;;6.33;5.80;;;20.70;99.90;;;;;;5060564;28;20499;-85
2021/06/10 06:32:15;;;;;;;9.33;6.90;;;20.70;99.90;;;;;;5058957;28;20425;-85
2021/06/10 06:34:45;;;;;;;8.90;8.07;;;20.80;99.90;;;;;;5063045;28;20445;-85
2021/06/10 06:37:13;;;;;;;6.53;5.90;;;20.80;99.90;;;;;;5063455;28;20539;-84
2021/06/10 06:39:39;;;;;;;10.13;7.10;;;20.90;99.90;;;;;;5064644;28;20508;-86
2021/06/10 06:42:08;;;;;;;14.97;6.90;;;20.90;99.90;;;;;;5064755;28;20441;-86
2021/06/10 06:44:34;;;;;;;7.17;6.33;;;20.90;99.90;;;;;;5068483;28;20533;-85
2021/06/10 06:47:01;;;;;;;8.93;6.70;;;21.10;99.90;;;;;;5071004;28;20457;-87
2021/06/10 06:49:27;;;;;;;6.93;6.27;;;21.20;99.90;;;;;;5068369;28;20446;-86
2021/06/10 06:52:03;;;;;;;6.83;5.17;;;21.40;99.90;;;;;;5067509;28;20983;-87
2021/06/10 06:58:27;;;;;;;11.30;6.80;;;21.80;99.90;;;;;;4992251;28;20452;-85
2021/06/10 07:00:56;;;;;;;8.90;6.97;;;23.20;99.90;;;;;;5056224;28;20478;-85
2021/06/10 07:07:20;;;;;;;8.13;6.37;;;22.60;99.90;;;;;;5059046;28;20470;-87
2021/06/10 07:27:36;;;;;;;;;;;;;;;;;;;;;
2021/06/10 07:33:50;;;;;;;5.93;5.43;;;24.90;99.90;;;;;;4960528;29;20507;-86
2021/06/10 07:49:22;;;;;;;13.03;7.00;;;23.30;99.90;;;;;;1285015;22;20793;-81
2021/06/10 07:51:49;;;;;;;14.77;6.97;;;23.20;99.90;;;;;;5044579;28;20437;-81
2021/06/10 07:54:16;;;;;;;6.43;5.83;;;23.20;99.90;;;;;;5045055;28;20441;-81
2021/06/10 07:56:42;;;;;;;7.27;6.67;;;23.30;99.90;;;;;;5044184;28;20523;-81
2021/06/10 07:59:10;;;;;;;8.83;7.93;;;23.40;99.90;;;;;;5052803;28;20449;-80
2021/06/10 08:01:36;;;;;;;9.77;7.40;;;23.40;99.90;;;;;;5055104;28;20509;-78
2021/06/10 08:04:02;;;;;;;10.60;8.07;;;23.50;99.90;;;;;;5062777;22;20501;-82
2021/06/10 08:06:29;;;;;;;8.80;6.43;;;23.50;99.90;;;;;;5053645;28;20452;-85
2021/06/10 08:08:55;;;;;;;9.53;7.30;;;23.50;99.90;;;;;;5057469;28;20414;-87
2021/06/10 08:11:22;;;;;;;8.97;6.50;;;23.60;99.90;;;;;;5048469;28;20459;-87
2021/06/10 08:13:48;;;;;;;14.10;9.10;;;23.50;99.90;;;;;;5046433;28;20464;-87
2021/06/10 08:16:15;;;;;;;10.90;7.80;;;23.50;99.90;;;;;;5046384;28;20498;-86
2021/06/10 08:18:41;;;;;;;9.40;8.43;;;23.60;99.90;;;;;;5045160;28;20816;-86
2021/06/10 08:21:08;;;;;;;9.67;8.77;;;23.50;99.90;;;;;;5045799;28;20536;-87
2021/06/10 08:23:35;;;;;;;11.90;10.37;;;23.70;99.90;;;;;;5044035;28;20508;-87
2021/06/10 08:26:03;;;;;;;13.00;8.30;;;23.70;99.90;;;;;;5048540;28;20442;-86
2021/06/10 08:28:30;;;;;;;9.30;8.40;;;23.80;99.90;;;;;;5052257;28;20450;-86
2021/06/10 08:30:57;;;;;;;21.53;9.53;;;23.80;99.90;;;;;;5049697;28;20473;-87
2021/06/10 08:33:23;;;;;;;14.03;8.50;;;23.70;99.90;;;;;;5049134;28;20491;-87
2021/06/10 08:35:50;;;;;;;10.50;7.93;;;23.70;99.90;;;;;;5042172;28;20816;-87
2021/06/10 08:38:16;;;;;;;9.43;8.63;;;23.80;99.90;;;;;;5040152;28;20541;-86
2021/06/10 08:40:44;;;;;;;8.47;7.63;;;24.00;99.90;;;;;;5040009;28;20482;-86
2021/06/10 08:43:10;;;;;;;9.70;8.73;;;24.10;99.90;;;;;;5039331;28;20452;-87
2021/06/10 08:45:37;;;;;;;10.47;9.33;;;23.90;99.90;;;;;;5039880;28;20457;-88
2021/06/10 08:48:05;;;;;;;10.73;9.77;;;24.00;99.90;;;;;;5040718;28;20458;-87
2021/06/10 08:50:32;;;;;;;12.13;8.73;;;24.00;99.90;;;;;;5042161;28;20465;-87
2021/06/10 08:53:00;;;;;;;10.67;9.40;;;24.10;99.90;;;;;;5039281;28;20431;-86
2021/06/10 08:55:27;;;;;;;10.77;9.43;;;24.30;99.90;;;;;;5041141;28;20525;-87
2021/06/10 08:57:55;;;;;;;9.47;8.67;;;24.20;99.90;;;;;;5040716;28;20435;-88
2021/06/10 09:00:23;;;;;;;11.70;8.40;;;23.40;99.90;;;;;;5039896;28;20482;-87
2021/06/10 09:02:53;;;;;;;11.07;10.07;;;24.20;99.90;;;;;;5038717;28;20465;-88
2021/06/10 09:05:21;;;;;;;9.60;8.70;;;24.30;99.90;;;;;;5038723;28;20464;-87
2021/06/10 09:07:52;;;;;;;11.07;9.20;;;24.30;99.90;;;;;;5040933;28;20462;-87
2021/06/10 09:10:22;;;;;;;8.83;7.83;;;24.30;99.90;;;;;;5041048;28;20902;-87
2021/06/10 09:12:48;;;;;;;9.43;8.50;;;24.30;99.90;;;;;;5053295;28;20483;-87
2021/06/10 09:15:17;;;;;;;8.40;7.10;;;24.30;99.90;;;;;;5041906;28;20466;-87
2021/06/10 09:17:44;;;;;;;11.03;7.53;;;24.50;99.90;;;;;;5041386;28;20792;-87
2021/06/10 09:20:31;;;;;;;10.83;8.23;;;24.40;99.90;;;;;;5039794;28;20479;-87
2021/06/10 09:23:15;;;;;;;10.27;9.30;;;24.50;99.90;;;;;;5039390;28;20446;-87
2021/06/10 09:25:43;;;;;;;9.30;8.50;;;24.50;99.90;;;;;;5040431;28;20536;-87
2021/06/10 09:28:10;;;;;;;9.60;8.77;;;24.50;99.90;;;;;;5039846;28;20514;-88
2021/06/10 09:30:41;;;;;;;9.97;8.97;;;24.60;99.90;;;;;;5040205;28;20450;-87
2021/06/10 09:33:10;;;;;;;8.27;7.00;;;23.90;99.90;;;;;;5039455;28;20431;-87
2021/06/10 09:35:38;;;;;;;10.00;9.10;;;24.50;99.90;;;;;;5038448;28;20491;-87
2021/06/10 09:38:07;;;;;;;9.17;8.40;;;24.40;99.90;;;;;;5040932;28;20431;-87
2021/06/10 09:40:34;;;;;;;9.10;8.20;;;24.60;99.90;;;;;;5039385;28;20488;-87
2021/06/10 09:43:00;;;;;;;12.13;9.30;;;24.70;99.90;;;;;;5039158;28;20454;-87
2021/06/10 09:45:28;;;;;;;8.97;8.17;;;24.60;99.90;;;;;;5041021;28;20454;-86
2021/06/10 09:47:59;;;;;;;10.70;8.77;;;24.50;99.90;;;;;;5041635;28;20443;-87
2021/06/10 09:50:30;;;;;;;9.33;8.50;;;24.60;99.90;;;;;;5050664;28;20427;-86
2021/06/10 09:53:00;;;;;;;10.50;9.30;;;24.70;99.90;;;;;;5049826;28;20441;-85
2021/06/10 09:55:31;;;;;;;9.63;8.57;;;24.70;99.90;;;;;;5049179;28;20442;-87
2021/06/10 09:57:58;;;;;;;9.07;7.93;;;24.70;99.90;;;;;;5045462;28;20500;-87
2021/06/10 10:00:25;;;;;;;7.83;7.10;;;24.80;99.90;;;;;;5037801;28;20477;-87
2021/06/10 10:02:52;;;;;;;8.70;7.60;;;24.90;99.90;;;;;;5039416;28;20828;-86
2021/06/10 10:05:22;;;;;;;8.83;8.00;;;24.70;99.90;;;;;;5039179;28;20835;-87
2021/06/10 10:07:49;;;;;;;9.33;8.43;;;24.80;99.90;;;;;;5038122;28;20788;-87
2021/06/10 10:10:19;;;;;;;8.00;7.30;;;24.90;99.90;;;;;;5038041;28;20457;-87
2021/06/10 10:12:48;;;;;;;9.77;8.77;;;25.00;99.90;;;;;;5038481;28;20502;-86
2021/06/10 10:15:15;;;;;;;8.37;7.67;;;24.90;99.90;;;;;;5037948;28;20489;-87
2021/06/10 10:17:41;;;;;;;8.73;7.60;;;;;;;;;;5040163;28;20446;-86
2021/06/10 10:20:10;;;;;;;7.80;7.00;;;24.90;99.90;;;;;;5042822;28;20479;-87
2021/06/10 10:22:37;;;;;;;7.70;7.10;;;25.00;99.90;;;;;;5040420;28;20480;-87
2021/06/10 10:25:06;;;;;;;8.43;6.20;;;25.80;99.90;;;;;;5040750;28;20474;-88
2021/06/10 10:27:35;;;;;;;8.53;7.70;;;25.10;99.90;;;;;;5037123;28;20426;-87
2021/06/10 10:30:02;;;;;;;7.67;7.07;;;25.00;99.90;;;;;;5040316;28;20446;-88
2021/06/10 10:32:30;;;;;;;6.63;6.13;;;25.10;99.90;;;;;;5037835;28;20473;-87
2021/06/10 10:35:24;;;;;;;7.10;6.50;;;25.20;99.90;;;;;;5038181;28;20466;-88
2021/06/10 10:37:53;;;;;;;9.20;6.23;;;25.20;99.90;;;;;;5037446;28;20431;-87
2021/06/10 10:40:21;;;;;;;6.20;5.80;;;25.30;99.90;;;;;;5037344;28;20574;-88
2021/06/10 10:42:47;;;;;;;7.33;6.63;;;25.40;99.90;;;;;;5038377;28;20522;-88
2021/06/10 10:45:16;;;;;;;7.30;6.40;;;25.50;99.90;;;;;;5036522;28;20450;-86
2021/06/10 10:47:47;;;;;;;7.73;7.10;;;25.40;99.90;;;;;;5037256;28;20466;-87
2021/06/10 10:50:19;;;;;;;6.37;5.97;;;25.30;99.90;;;;;;5038144;28;20470;-87
2021/06/10 10:52:55;;;;;;;7.97;7.23;;;25.30;99.90;;;;;;5037129;28;20442;-87
2021/06/10 10:55:28;;;;;;;11.43;6.10;;;25.30;99.90;;;;;;5037560;28;20438;-87
2021/06/10 10:57:59;;;;;;;8.20;6.70;;;25.10;99.90;;;;;;5037482;28;20539;-88
2021/06/10 11:00:49;;;;;;;6.37;5.77;;;25.10;99.90;;;;;;5039161;28;20482;-88
2021/06/10 11:03:18;;;;;;;6.90;6.30;;;24.80;99.90;;;;;;5055924;28;20450;-87
2021/06/10 11:05:45;;;;;;;6.73;6.23;;;24.90;99.90;;;;;;5046994;28;20436;-88
2021/06/10 11:08:13;;;;;;;9.23;7.00;;;25.20;99.90;;;;;;5042945;28;20473;-87
2021/06/10 11:11:03;;;;;;;7.07;6.50;;;25.20;99.90;;;;;;5048941;28;20446;-86
2021/06/10 11:13:31;;;;;;;5.70;5.20;;;25.40;99.90;;;;;;5049047;28;20470;-87
2021/06/10 11:16:03;;;;;;;6.70;6.13;;;25.40;99.90;;;;;;5040958;28;20450;-87
2021/06/10 11:18:40;;;;;;;6.13;5.47;;;25.40;99.90;;;;;;5041876;28;20435;-87
2021/06/10 11:21:06;;;;;;;7.03;6.53;;;25.40;99.90;;;;;;5043190;28;20482;-86
2021/06/10 11:23:34;;;;;;;6.87;5.97;;;25.30;99.90;;;;;;5047710;28;20474;-88
2021/06/10 11:26:03;;;;;;;6.03;5.50;;;25.40;99.90;;;;;;5054935;28;20451;-87
2021/06/10 11:28:35;;;;;;;14.77;6.87;;;25.40;99.90;;;;;;5060257;28;20437;-87
2021/06/10 11:31:14;;;;;;;7.57;6.47;;;25.20;99.90;;;;;;5061036;28;20547;-87
2021/06/10 11:33:41;;;;;;;6.40;5.93;;;25.40;99.90;;;;;;5059972;28;20453;-88
2021/06/10 11:36:09;;;;;;;8.20;5.53;;;25.50;99.90;;;;;;5059467;28;20514;-89
2021/06/10 11:38:43;;;;;;;5.53;5.13;;;25.50;99.90;;;;;;5059405;28;20447;-88
2021/06/10 11:41:11;;;;;;;6.17;5.60;;;25.60;99.90;;;;;;5052139;28;20470;-87
2021/06/10 11:43:43;;;;;;;6.97;5.80;;;25.60;99.90;;;;;;5050031;28;20478;-88
2021/06/10 11:46:11;;;;;;;10.87;6.97;;;25.40;99.60;;;;;;5048393;28;20450;-87
2021/06/10 11:48:39;;;;;;;6.33;5.70;;;25.50;99.90;;;;;;5047833;28;20471;-88
2021/06/10 11:51:07;;;;;;;5.93;5.37;;;25.60;99.60;;;;;;5048481;28;20446;-87
2021/06/10 11:53:34;;;;;;;5.10;4.70;;;25.60;99.80;;;;;;5052059;28;20478;-88
2021/06/10 11:56:01;;;;;;;5.70;5.17;;;25.80;99.90;;;;;;5047644;28;20451;-88
2021/06/10 11:58:29;;;;;;;5.20;4.73;;;25.80;99.80;;;;;;5048260;28;20948;-87
2021/06/10 12:01:08;;;;;;;8.00;6.33;;;25.60;99.10;;;;;;5048786;28;20474;-87
2021/06/10 12:03:35;;;;;;;5.87;5.40;;;25.50;98.80;;;;;;5047817;28;20806;-88
2021/06/10 12:06:02;;;;;;;5.60;5.10;;;25.60;99.80;;;;;;5045398;28;20435;-88
2021/06/10 12:08:31;;;;;;;6.27;5.67;;;25.60;99.90;;;;;;5045504;28;20442;-87
2021/06/10 12:11:01;;;;;;;5.90;5.40;;;25.60;99.90;;;;;;5047299;28;20450;-89
2021/06/10 12:13:32;;;;;;;5.80;5.30;;;25.70;99.50;;;;;;5046659;28;20469;-88
2021/06/10 12:16:00;;;;;;;7.50;5.53;;;25.80;99.90;;;;;;5046525;28;20439;-88
2021/06/10 12:18:27;;;;;;;41.97;13.97;;;25.90;99.90;;;;;;5044508;28;20954;-87
2021/06/10 12:20:56;;;;;;;6.43;5.90;;;26.00;98.80;;;;;;5041871;28;20953;-88
2021/06/10 12:23:26;;;;;;;6.57;6.07;;;26.10;98.90;;;;;;5041876;28;20471;-88
2021/06/10 12:25:54;;;;;;;7.47;5.77;;;26.20;99.90;;;;;;5040980;28;20450;-89
2021/06/10 12:28:46;;;;;;;5.47;4.97;;;26.20;97.60;;;;;;5042079;28;20953;-88
2021/06/10 12:31:15;;;;;;;6.13;5.37;;;26.00;98.90;;;;;;5050679;28;20447;-87
2021/06/10 12:33:43;;;;;;;6.53;5.20;;;25.90;99.80;;;;;;5051656;28;20463;-87
2021/06/10 12:36:23;;;;;;;4.80;4.50;;;26.00;98.00;;;;;;5056409;28;20470;-87
2021/06/10 12:38:55;;;;;;;5.70;5.30;;;26.10;97.90;;;;;;5049027;28;20465;-88
2021/06/10 12:41:25;;;;;;;5.07;4.77;;;26.10;97.80;;;;;;5044068;28;20471;-88
2021/06/10 12:44:03;;;;;;;4.63;3.90;;;26.20;97.00;;;;;;5043318;28;20474;-88
2021/06/10 12:46:31;;;;;;;3.83;3.47;;;26.20;89.60;;;;;;5044425;28;20414;-88
2021/06/10 12:48:59;;;;;;;6.43;4.00;;;26.30;91.10;;;;;;5045558;28;20469;-87
2021/06/10 12:51:28;;;;;;;3.70;3.50;;;26.40;86.50;;;;;;5045829;28;20816;-87
2021/06/10 12:54:05;;;;;;;4.80;4.40;;;26.40;87.50;;;;;;5046167;28;20463;-87
2021/06/10 12:56:40;;;;;;;4.93;4.63;;;26.40;89.00;;;;;;5046840;28;20469;-88
2021/06/10 12:59:10;;;;;;;5.70;4.70;;;26.50;90.80;;;;;;5047350;28;20431;-89
2021/06/10 13:01:37;;;;;;;4.70;4.40;;;26.70;91.70;;;;;;5049411;28;20470;-88
2021/06/10 13:04:03;;;;;;;5.37;4.87;;;26.80;89.40;;;;;;5050478;28;20487;-88
2021/06/10 13:06:30;;;;;;;5.07;4.57;;;26.80;90.30;;;;;;5050211;28;20489;-88
2021/06/10 13:08:57;;;;;;;4.93;4.57;;;26.90;87.50;;;;;;5050102;28;20462;-88
2021/06/10 13:11:25;;;;;;;5.70;5.27;;;26.90;88.50;;;;;;5049708;28;20446;-88
2021/06/10 13:13:56;;;;;;;5.00;4.50;;;26.90;86.70;;;;;;5049002;28;20474;-88
2021/06/10 13:16:23;;;;;;;4.97;4.50;;;26.90;84.50;;;;;;5049743;28;20439;-88
2021/06/10 13:18:50;;;;;;;7.57;4.47;;;27.20;90.40;;;;;;5055049;28;20451;-88
2021/06/10 13:21:21;;;;;;;8.33;3.90;;;27.00;84.90;;;;;;5051286;28;20486;-88
2021/06/10 13:23:50;;;;;;;7.23;4.50;;;26.90;83.60;;;;;;5052882;28;20523;-88
2021/06/10 13:26:20;;;;;;;4.10;3.80;;;26.90;81.60;;;;;;5055322;28;20451;-88
2021/06/10 13:29:00;;;;;;;7.80;4.80;;;26.90;82.80;;;;;;5049878;28;20496;-88
2021/06/10 13:31:35;;;;;;;4.93;4.40;;;26.80;82.00;;;;;;5052046;28;20462;-88
2021/06/10 13:34:04;;;;;;;4.50;4.20;;;26.70;85.90;;;;;;5050689;28;20480;-87